createdAt,value
2019-03-13T00:01:29.067Z,1.60
2019-03-13T00:03:57.411Z,1.30
2019-03-13T00:06:25.709Z,1.53
2019-03-13T00:08:53.951Z,1.50
2019-03-13T00:11:22.185Z,1.60
2019-03-13T00:13:50.509Z,1.30
2019-03-13T00:16:18.807Z,1.67
2019-03-13T00:18:47.024Z,1.50
2019-03-13T00:21:15.344Z,1.57
2019-03-13T00:23:43.576Z,1.40
2019-03-13T00:26:11.820Z,1.60
2019-03-13T00:28:40.032Z,1.40
2019-03-13T00:31:08.447Z,1.63
2019-03-13T00:33:36.676Z,1.90
2019-03-13T00:36:05.088Z,1.70
2019-03-13T00:38:33.396Z,1.80
2019-03-13T00:41:01.711Z,1.50
2019-03-13T00:43:29.932Z,1.43
2019-03-13T00:45:58.260Z,1.77
2019-03-13T00:48:26.512Z,1.70
2019-03-13T00:50:54.730Z,1.67
2019-03-13T00:53:22.956Z,1.50
2019-03-13T00:55:51.268Z,1.30
2019-03-13T00:58:19.492Z,1.60
2019-03-13T01:00:49.460Z,1.30
2019-03-13T01:03:34.407Z,1.23
2019-03-13T01:06:10.316Z,1.40
2019-03-13T01:08:38.616Z,0.80
2019-03-13T01:11:06.872Z,0.70
2019-03-13T01:13:35.220Z,0.90
2019-03-13T01:16:03.584Z,0.90
2019-03-13T01:18:31.772Z,1.10
2019-03-13T01:21:00.066Z,0.70
2019-03-13T01:23:28.328Z,0.50
2019-03-13T01:25:56.535Z,0.47
2019-03-13T01:28:24.852Z,0.60
2019-03-13T01:31:11.049Z,0.60
2019-03-13T01:33:39.445Z,0.50
2019-03-13T01:36:07.825Z,0.60
2019-03-13T01:38:36.177Z,0.57
2019-03-13T01:41:04.477Z,0.60
2019-03-13T01:43:32.740Z,0.57
2019-03-13T01:46:01.044Z,0.70
2019-03-13T01:48:29.325Z,0.70
2019-03-13T01:50:57.654Z,0.60
2019-03-13T01:53:25.892Z,0.70
2019-03-13T01:55:54.142Z,0.60
2019-03-13T01:58:22.363Z,0.60
2019-03-13T02:00:50.629Z,0.60
2019-03-13T02:03:18.844Z,0.90
2019-03-13T02:05:47.168Z,0.83
2019-03-13T02:08:15.458Z,1.10
2019-03-13T02:10:43.842Z,0.80
2019-03-13T02:13:12.080Z,0.87
2019-03-13T02:15:43.380Z,0.97
2019-03-13T02:18:11.591Z,1.00
2019-03-13T02:20:39.910Z,0.90
2019-03-13T02:23:08.210Z,0.97
2019-03-13T02:25:36.476Z,0.90
2019-03-13T02:28:04.683Z,0.97
2019-03-13T02:30:32.977Z,0.90
2019-03-13T02:33:01.236Z,0.80
2019-03-13T02:35:29.542Z,0.90
2019-03-13T02:37:57.790Z,0.90
2019-03-13T02:40:26.086Z,0.80
2019-03-13T02:42:54.344Z,0.90
2019-03-13T02:45:22.646Z,0.70
2019-03-13T02:47:50.973Z,0.90
2019-03-13T02:50:19.273Z,0.80
2019-03-13T02:52:47.590Z,0.87
2019-03-13T02:55:15.888Z,0.97
2019-03-13T02:57:44.214Z,1.00
2019-03-13T03:00:15.650Z,0.90
2019-03-13T03:02:48.119Z,0.70
2019-03-13T03:05:16.414Z,0.87
2019-03-13T03:07:44.670Z,0.70
2019-03-13T03:10:15.055Z,0.70
2019-03-13T03:12:43.491Z,0.73
2019-03-13T03:15:13.348Z,0.80
2019-03-13T03:17:41.675Z,0.63
2019-03-13T03:20:14.304Z,0.57
2019-03-13T03:22:42.673Z,0.70
2019-03-13T03:25:12.444Z,0.53
2019-03-13T03:27:40.704Z,0.60
2019-03-13T03:30:10.503Z,0.60
2019-03-13T03:32:38.849Z,0.70
2019-03-13T03:35:07.167Z,0.67
2019-03-13T03:37:35.359Z,0.50
2019-03-13T03:40:05.281Z,0.73
2019-03-13T03:42:33.655Z,0.60
2019-03-13T03:45:02.064Z,0.77
2019-03-13T03:47:30.296Z,0.60
2019-03-13T03:49:58.631Z,0.73
2019-03-13T03:52:26.846Z,0.80
2019-03-13T03:54:55.072Z,0.60
2019-03-13T03:57:23.500Z,0.90
2019-03-13T03:59:51.793Z,0.60
2019-03-13T04:02:20.122Z,0.67
2019-03-13T04:04:48.425Z,0.60
2019-03-13T04:07:16.742Z,0.80
2019-03-13T04:09:44.969Z,0.60
2019-03-13T04:12:13.245Z,0.70
2019-03-13T04:14:41.459Z,0.70
2019-03-13T04:17:09.677Z,0.60
2019-03-13T04:19:37.978Z,0.60
2019-03-13T04:22:06.216Z,0.83
2019-03-13T04:24:34.538Z,0.80
2019-03-13T04:27:02.836Z,0.80
2019-03-13T04:29:31.084Z,0.90
2019-03-13T04:31:59.387Z,0.90
2019-03-13T04:34:27.709Z,0.70
2019-03-13T04:36:55.946Z,0.63
2019-03-13T04:39:24.218Z,0.80
2019-03-13T04:41:55.164Z,0.67
2019-03-13T04:44:23.422Z,0.80
2019-03-13T04:46:51.652Z,0.90
2019-03-13T04:49:19.913Z,1.10
2019-03-13T04:51:48.201Z,0.80
2019-03-13T04:54:16.465Z,1.00
2019-03-13T04:56:44.684Z,1.30
2019-03-13T04:59:12.916Z,1.13
2019-03-13T05:01:41.166Z,1.03
2019-03-13T05:04:09.385Z,1.10
2019-03-13T05:06:37.645Z,1.10
2019-03-13T05:09:05.931Z,1.20
2019-03-13T05:11:34.255Z,1.37
2019-03-13T05:14:02.542Z,1.10
2019-03-13T05:16:30.860Z,1.20
2019-03-13T05:18:59.072Z,4.13
2019-03-13T05:21:27.331Z,2.67
2019-03-13T05:23:55.556Z,4.00
2019-03-13T05:26:23.820Z,2.63
2019-03-13T05:28:52.032Z,1.70
2019-03-13T05:31:20.358Z,1.33
2019-03-13T05:33:49.178Z,1.47
2019-03-13T05:36:17.402Z,1.63
2019-03-13T05:38:45.657Z,1.43
2019-03-13T05:41:13.960Z,1.43
2019-03-13T05:43:42.208Z,1.47
2019-03-13T05:46:10.428Z,1.70
2019-03-13T05:48:38.677Z,1.50
2019-03-13T05:51:06.903Z,2.00
2019-03-13T05:53:35.148Z,1.83
2019-03-13T05:56:03.380Z,1.77
2019-03-13T05:58:31.631Z,1.40
2019-03-13T06:00:59.850Z,1.50
2019-03-13T06:03:28.071Z,1.20
2019-03-13T06:05:56.321Z,1.37
2019-03-13T06:08:24.657Z,1.30
2019-03-13T06:10:52.893Z,1.47
2019-03-13T06:13:21.183Z,1.60
2019-03-13T06:15:49.509Z,1.47
2019-03-13T06:18:17.725Z,1.90
2019-03-13T06:20:46.048Z,1.70
2019-03-13T06:23:14.271Z,1.70
2019-03-13T06:25:42.602Z,1.60
2019-03-13T06:28:10.822Z,1.70
2019-03-13T06:30:39.124Z,1.90
2019-03-13T06:33:07.349Z,2.10
2019-03-13T06:35:35.672Z,2.03
2019-03-13T06:38:03.959Z,2.00
2019-03-13T06:40:32.259Z,2.13
2019-03-13T06:43:00.508Z,2.13
2019-03-13T06:45:28.880Z,1.90
2019-03-13T06:47:57.206Z,2.13
2019-03-13T06:50:25.806Z,2.10
2019-03-13T06:52:54.133Z,1.67
2019-03-13T06:55:22.434Z,1.90
2019-03-13T06:57:50.685Z,1.73
2019-03-13T07:00:29.516Z,1.97
2019-03-13T07:03:08.217Z,1.77
2019-03-13T07:05:40.861Z,2.30
2019-03-13T07:08:10.826Z,1.97
2019-03-13T07:10:49.769Z,2.00
2019-03-13T07:13:36.329Z,1.70
2019-03-13T07:16:06.892Z,1.93
2019-03-13T07:18:36.870Z,1.63
2019-03-13T07:21:23.734Z,1.87
2019-03-13T07:23:59.760Z,1.87
2019-03-13T07:26:32.176Z,1.43
2019-03-13T07:29:11.493Z,1.53
2019-03-13T07:31:36.460Z,1.60
2019-03-13T07:34:12.665Z,1.60
2019-03-13T07:36:58.910Z,1.20
2019-03-13T07:39:46.833Z,1.33
2019-03-13T07:42:19.492Z,1.10
2019-03-13T07:44:55.610Z,1.13
2019-03-13T07:47:32.013Z,1.30
2019-03-13T07:50:04.769Z,1.33
2019-03-13T07:52:49.750Z,1.20
2019-03-13T07:55:19.746Z,1.17
2019-03-13T07:57:52.740Z,1.47
2019-03-13T08:00:31.955Z,1.20
2019-03-13T08:03:11.330Z,1.10
2019-03-13T08:05:42.457Z,1.10
2019-03-13T08:08:22.390Z,1.43
2019-03-13T08:11:03.453Z,1.50
2019-03-13T08:13:33.378Z,1.20
2019-03-13T08:16:19.826Z,1.03
2019-03-13T08:19:04.710Z,1.30
2019-03-13T08:21:46.289Z,1.50
2019-03-13T08:24:31.273Z,1.27
2019-03-13T08:27:01.251Z,1.10
2019-03-13T08:29:31.193Z,1.10
2019-03-13T08:32:07.109Z,1.10
2019-03-13T08:34:39.802Z,1.37
2019-03-13T08:37:18.645Z,1.23
2019-03-13T08:39:57.503Z,1.33
2019-03-13T08:42:33.226Z,1.10
2019-03-13T08:45:03.090Z,1.17
2019-03-13T08:47:49.162Z,1.20
2019-03-13T08:50:24.655Z,1.10
2019-03-13T08:53:03.289Z,1.37
2019-03-13T08:55:33.159Z,1.20
2019-03-13T08:58:03.017Z,1.30
2019-03-13T09:00:39.071Z,1.10
2019-03-13T09:03:08.992Z,1.10
2019-03-13T09:05:57.046Z,1.50
2019-03-13T09:08:43.474Z,1.10
2019-03-13T09:11:19.414Z,1.00
2019-03-13T09:14:05.913Z,1.23
2019-03-13T09:16:41.540Z,0.93
2019-03-13T09:19:29.666Z,1.17
2019-03-13T09:21:59.537Z,1.40
2019-03-13T09:24:47.318Z,0.83
2019-03-13T09:27:19.744Z,1.10
2019-03-13T09:29:49.645Z,0.97
2019-03-13T09:32:22.698Z,1.17
2019-03-13T09:34:58.561Z,1.13
2019-03-13T09:37:31.545Z,1.10
2019-03-13T09:40:01.563Z,1.23
2019-03-13T09:45:29.101Z,1.10
2019-03-13T09:50:50.821Z,1.20
2019-03-13T09:53:20.690Z,1.20
2019-03-13T09:56:05.804Z,1.10
2019-03-13T09:58:41.890Z,1.07
2019-03-13T10:01:11.861Z,1.20
2019-03-13T10:03:53.566Z,1.20
2019-03-13T10:06:23.529Z,1.33
2019-03-13T10:08:53.478Z,1.07
2019-03-13T10:11:26.224Z,1.10
2019-03-13T10:13:58.978Z,1.53
2019-03-13T10:16:34.594Z,1.23
2019-03-13T10:19:07.319Z,1.10
2019-03-13T10:21:40.010Z,1.00
2019-03-13T10:24:13.097Z,1.03
2019-03-13T10:26:45.707Z,1.40
2019-03-13T10:29:15.593Z,1.60
2019-03-13T10:31:46.838Z,1.20
2019-03-13T10:34:22.354Z,1.30
2019-03-13T10:37:01.527Z,1.00
2019-03-13T10:39:34.714Z,1.13
2019-03-13T10:42:16.617Z,1.30
2019-03-13T10:44:49.522Z,1.50
2019-03-13T10:47:19.472Z,1.40
2019-03-13T10:49:52.159Z,0.97
2019-03-13T10:52:22.027Z,1.20
2019-03-13T10:55:04.034Z,1.07
2019-03-13T10:57:34.039Z,1.20
2019-03-13T11:00:15.768Z,1.10
2019-03-13T11:02:48.465Z,1.13
2019-03-13T11:05:21.539Z,1.30
2019-03-13T11:07:51.861Z,1.20
2019-03-13T11:10:21.722Z,0.80
2019-03-13T11:13:08.149Z,1.20
2019-03-13T11:15:47.262Z,1.10
2019-03-13T11:18:20.197Z,1.17
2019-03-13T11:20:52.832Z,1.20
2019-03-13T11:23:22.816Z,1.30
2019-03-13T11:26:10.871Z,1.43
2019-03-13T11:28:55.933Z,1.17
2019-03-13T11:31:31.409Z,1.33
2019-03-13T11:34:01.434Z,1.10
2019-03-13T11:36:31.345Z,1.33
2019-03-13T11:39:13.300Z,1.53
2019-03-13T11:41:55.225Z,1.33
2019-03-13T11:44:34.017Z,1.20
2019-03-13T11:47:20.235Z,1.30
2019-03-13T11:50:08.614Z,1.53
2019-03-13T11:52:45.444Z,1.47
2019-03-13T11:55:32.064Z,1.50
2019-03-13T11:58:04.688Z,1.50
2019-03-13T12:00:40.806Z,1.30
2019-03-13T12:03:19.485Z,1.50
2019-03-13T12:06:04.418Z,1.40
2019-03-13T12:08:37.194Z,1.20
2019-03-13T12:11:09.941Z,1.27
2019-03-13T12:13:45.329Z,1.23
2019-03-13T12:16:15.221Z,0.93
2019-03-13T12:18:45.157Z,1.20
2019-03-13T12:21:18.104Z,1.53
2019-03-13T12:23:47.968Z,1.30
2019-03-13T12:26:17.937Z,1.23
2019-03-13T12:28:50.323Z,0.90
2019-03-13T12:31:20.295Z,1.00
2019-03-13T12:33:50.243Z,1.30
2019-03-13T12:36:20.313Z,1.03
2019-03-13T12:38:59.218Z,1.20
2019-03-13T12:41:29.103Z,1.17
2019-03-13T12:43:59.054Z,1.00
2019-03-13T12:46:29.026Z,1.10
2019-03-13T12:49:01.889Z,0.80
2019-03-13T12:51:48.248Z,1.17
2019-03-13T12:54:27.272Z,1.00
2019-03-13T12:56:57.246Z,1.07
2019-03-13T12:59:43.091Z,1.03
2019-03-13T13:02:16.002Z,1.00
2019-03-13T13:04:48.441Z,1.20
2019-03-13T13:07:21.081Z,0.93
2019-03-13T13:10:10.200Z,1.10
2019-03-13T13:12:40.190Z,0.90
2019-03-13T13:15:20.503Z,1.30
2019-03-13T13:17:53.269Z,0.80
2019-03-13T13:20:23.954Z,1.13
2019-03-13T13:25:39.006Z,1.20
2019-03-13T13:28:07.301Z,1.17
2019-03-13T13:30:35.621Z,1.00
2019-03-13T13:33:03.921Z,1.30
2019-03-13T13:35:32.205Z,1.03
2019-03-13T13:38:00.462Z,1.20
2019-03-13T13:40:28.753Z,1.20
2019-03-13T13:42:57.069Z,1.10
2019-03-13T13:45:32.910Z,1.13
2019-03-13T13:47:59.924Z,1.00
2019-03-13T13:50:28.213Z,1.40
2019-03-13T13:52:56.517Z,1.73
2019-03-13T13:55:24.764Z,1.63
2019-03-13T13:57:52.992Z,1.43
2019-03-13T14:00:21.332Z,1.47
2019-03-13T14:02:49.616Z,1.30
2019-03-13T14:05:17.877Z,1.30
2019-03-13T14:07:46.184Z,1.40
2019-03-13T14:10:14.480Z,1.30
2019-03-13T14:12:42.803Z,1.10
2019-03-13T14:15:12.564Z,1.40
2019-03-13T14:17:40.908Z,1.50
2019-03-13T14:20:10.667Z,1.33
2019-03-13T14:22:39.000Z,1.10
2019-03-13T14:25:08.780Z,1.70
2019-03-13T14:27:37.041Z,1.50
2019-03-13T14:30:06.802Z,1.33
2019-03-13T14:32:35.053Z,1.40
2019-03-13T14:35:03.852Z,1.60
2019-03-13T14:37:32.072Z,1.50
2019-03-13T14:40:00.396Z,1.30
2019-03-13T14:42:28.729Z,1.57
2019-03-13T14:44:56.995Z,1.50
2019-03-13T14:47:25.235Z,1.40
2019-03-13T14:49:53.494Z,1.47
2019-03-13T14:52:21.789Z,1.37
2019-03-13T14:54:50.044Z,1.40
2019-03-13T14:57:18.260Z,1.60
2019-03-13T14:59:46.601Z,1.30
2019-03-13T15:02:14.880Z,1.40
2019-03-13T15:04:43.202Z,1.40
2019-03-13T15:07:11.499Z,1.50
2019-03-13T15:09:39.719Z,1.43
2019-03-13T15:12:08.058Z,1.20
2019-03-13T15:14:36.277Z,1.13
2019-03-13T15:17:05.157Z,1.20
2019-03-13T15:19:33.630Z,1.10
2019-03-13T15:22:01.994Z,1.40
2019-03-13T15:24:30.333Z,1.30
2019-03-13T15:27:11.998Z,2.73
2019-03-13T15:29:48.694Z,1.30
2019-03-13T15:32:34.561Z,1.20
2019-03-13T15:35:04.466Z,1.30
2019-03-13T15:37:32.772Z,1.57
2019-03-13T15:40:01.114Z,1.20
2019-03-13T15:42:29.420Z,0.97
2019-03-13T15:44:57.746Z,1.40
2019-03-13T15:47:26.120Z,1.40
2019-03-13T15:49:54.382Z,1.23
2019-03-13T15:52:22.646Z,1.60
2019-03-13T15:54:50.891Z,1.73
2019-03-13T15:57:19.214Z,1.60
2019-03-13T15:59:47.453Z,1.40
2019-03-13T16:02:15.749Z,1.60
2019-03-13T16:04:44.101Z,2.23
2019-03-13T16:07:12.330Z,1.80
2019-03-13T16:09:40.613Z,1.80
2019-03-13T16:12:08.907Z,1.80
2019-03-13T16:14:37.165Z,1.33
2019-03-13T16:17:05.569Z,1.37
2019-03-13T16:19:33.875Z,1.77
2019-03-13T16:22:03.172Z,1.50
2019-03-13T16:24:31.467Z,1.33
2019-03-13T16:26:59.801Z,1.70
2019-03-13T16:29:30.805Z,1.57
2019-03-13T16:31:57.932Z,1.70
2019-03-13T16:34:26.184Z,1.40
2019-03-13T16:36:54.418Z,1.47
2019-03-13T16:39:22.667Z,1.87
2019-03-13T16:41:50.886Z,1.83
2019-03-13T16:44:19.136Z,2.23
2019-03-13T16:46:47.369Z,1.80
2019-03-13T16:49:15.701Z,1.50
2019-03-13T16:51:43.936Z,1.80
2019-03-13T16:54:12.271Z,1.77
2019-03-13T16:56:40.489Z,1.73
2019-03-13T16:59:08.825Z,2.17
2019-03-13T17:01:37.052Z,1.80
2019-03-13T17:04:05.346Z,1.80
2019-03-13T17:06:33.673Z,2.27
2019-03-13T17:09:01.899Z,1.83
2019-03-13T17:11:30.160Z,2.20
2019-03-13T17:14:00.758Z,1.57
2019-03-13T17:16:29.117Z,1.83
2019-03-13T17:18:57.413Z,1.80
2019-03-13T17:21:53.904Z,2.10
2019-03-13T17:24:22.364Z,1.77
2019-03-13T17:26:50.620Z,1.60
2019-03-13T17:29:18.846Z,1.83
2019-03-13T17:31:47.151Z,1.70
2019-03-13T17:34:15.420Z,2.10
2019-03-13T17:36:43.906Z,2.10
2019-03-13T17:39:12.717Z,2.30
2019-03-13T17:41:41.129Z,1.93
2019-03-13T17:44:10.172Z,2.13
2019-03-13T17:46:38.466Z,2.17
2019-03-13T17:49:06.765Z,1.80
2019-03-13T17:51:35.486Z,1.83
2019-03-13T17:54:04.414Z,1.93
2019-03-13T17:56:32.635Z,2.40
2019-03-13T17:59:01.183Z,2.40
2019-03-13T18:01:29.368Z,2.00
2019-03-13T18:03:58.380Z,1.80
2019-03-13T18:06:26.966Z,2.00
2019-03-13T18:08:55.358Z,2.17
2019-03-13T18:11:24.028Z,2.20
2019-03-13T18:13:52.481Z,1.97
2019-03-13T18:16:21.447Z,1.90
2019-03-13T18:18:50.024Z,1.90
2019-03-13T18:21:18.347Z,2.30
2019-03-13T18:23:46.580Z,2.53
2019-03-13T18:26:15.189Z,2.27
2019-03-13T18:28:43.372Z,2.40
2019-03-13T18:31:12.477Z,2.50
2019-03-13T18:33:42.579Z,2.10
2019-03-13T18:36:13.828Z,2.37
2019-03-13T18:38:41.001Z,2.27
2019-03-13T18:41:09.546Z,2.00
2019-03-13T18:43:38.292Z,2.10
2019-03-13T18:46:07.059Z,2.27
2019-03-13T18:48:35.358Z,1.97
2019-03-13T18:51:03.775Z,2.40
2019-03-13T18:53:32.078Z,2.13
2019-03-13T18:56:00.403Z,2.10
2019-03-13T18:58:28.701Z,2.10
2019-03-13T19:00:58.313Z,2.03
2019-03-13T19:03:26.819Z,2.23
2019-03-13T19:05:55.171Z,1.90
2019-03-13T19:08:26.694Z,2.23
2019-03-13T19:10:53.449Z,2.10
2019-03-13T19:13:21.704Z,1.93
2019-03-13T19:15:50.024Z,1.67
2019-03-13T19:18:18.257Z,2.00
2019-03-13T19:20:46.545Z,1.90
2019-03-13T19:23:14.803Z,1.90
2019-03-13T19:25:43.074Z,2.17
2019-03-13T19:28:11.314Z,1.93
2019-03-13T19:30:39.649Z,2.20
2019-03-13T19:33:07.948Z,2.00
2019-03-13T19:35:41.669Z,2.40
2019-03-13T19:38:11.188Z,1.80
2019-03-13T19:40:40.263Z,2.17
2019-03-13T19:43:08.788Z,2.30
2019-03-13T19:45:38.699Z,2.37
2019-03-13T19:48:07.060Z,2.30
2019-03-13T19:50:35.332Z,2.50
2019-03-13T19:53:03.803Z,2.60
2019-03-13T19:55:33.032Z,2.80
2019-03-13T19:58:01.344Z,2.50
2019-03-13T20:00:29.931Z,2.70
2019-03-13T20:03:00.670Z,2.87
2019-03-13T20:05:29.227Z,2.73
2019-03-13T20:07:57.467Z,2.90
2019-03-13T20:10:26.662Z,2.90
2019-03-13T20:12:54.934Z,2.70
2019-03-13T20:15:27.381Z,2.17
2019-03-13T20:17:56.392Z,2.50
2019-03-13T20:20:24.929Z,3.07
2019-03-13T20:23:03.157Z,2.90
2019-03-13T20:25:31.626Z,2.30
2019-03-13T20:28:00.082Z,2.00
2019-03-13T20:30:28.628Z,2.10
2019-03-13T20:32:56.960Z,2.30
2019-03-13T20:35:25.542Z,2.27
2019-03-13T20:37:56.900Z,2.20
2019-03-13T20:40:25.875Z,2.17
2019-03-13T20:42:54.345Z,2.30
2019-03-13T20:45:28.928Z,1.93
2019-03-13T20:47:57.797Z,2.27
2019-03-13T20:50:36.017Z,2.20
2019-03-13T20:52:56.352Z,2.30
2019-03-13T20:55:25.136Z,2.40
2019-03-13T20:57:53.601Z,2.07
2019-03-13T21:00:25.692Z,2.20
2019-03-13T21:02:55.500Z,2.17
2019-03-13T21:05:24.918Z,2.53
2019-03-13T21:07:54.205Z,2.30
2019-03-13T21:10:25.224Z,2.50
2019-03-13T21:12:55.765Z,2.40
2019-03-13T21:15:45.381Z,2.50
2019-03-13T21:18:13.710Z,2.40
2019-03-13T21:20:42.551Z,2.37
2019-03-13T21:23:11.626Z,3.00
2019-03-13T21:25:40.208Z,2.97
2019-03-13T21:28:10.418Z,2.80
2019-03-13T21:30:38.825Z,2.87
2019-03-13T21:33:07.671Z,2.53
2019-03-13T21:35:36.144Z,2.67
2019-03-13T21:38:04.370Z,2.70
2019-03-13T21:40:32.764Z,2.50
2019-03-13T21:43:01.076Z,3.00
2019-03-13T21:45:40.359Z,2.47
2019-03-13T21:47:59.451Z,2.83
2019-03-13T21:50:27.825Z,2.80
2019-03-13T21:52:56.559Z,2.83
2019-03-13T21:55:27.264Z,2.60
2019-03-13T21:57:54.994Z,3.20
2019-03-13T22:00:24.213Z,2.63
2019-03-13T22:02:52.675Z,2.70
2019-03-13T22:05:26.125Z,2.87
2019-03-13T22:07:51.065Z,2.63
2019-03-13T22:10:20.267Z,2.90
2019-03-13T22:12:48.588Z,2.27
2019-03-13T22:15:17.839Z,2.87
2019-03-13T22:17:46.160Z,2.20
2019-03-13T22:20:15.652Z,2.20
2019-03-13T22:22:43.960Z,1.97
2019-03-13T22:25:13.249Z,1.60
2019-03-13T22:27:41.662Z,2.23
2019-03-13T22:30:14.367Z,1.70
2019-03-13T22:32:42.736Z,1.90
2019-03-13T22:35:11.405Z,1.50
2019-03-13T22:37:39.724Z,1.80
2019-03-13T22:40:09.728Z,1.60
2019-03-13T22:42:38.245Z,1.40
2019-03-13T22:45:08.439Z,1.60
2019-03-13T22:47:42.469Z,1.50
2019-03-13T22:50:11.616Z,1.20
2019-03-13T22:52:39.946Z,1.20
2019-03-13T22:55:08.845Z,1.40
2019-03-13T22:57:37.212Z,1.40
2019-03-13T23:00:07.698Z,1.70
2019-03-13T23:02:37.572Z,1.47
2019-03-13T23:05:06.646Z,1.40
2019-03-13T23:07:35.243Z,1.73
2019-03-13T23:10:08.559Z,2.00
2019-03-13T23:12:36.699Z,2.00
2019-03-13T23:15:05.576Z,2.00
2019-03-13T23:17:35.190Z,1.80
2019-03-13T23:20:04.737Z,1.87
2019-03-13T23:22:32.948Z,1.70
2019-03-13T23:25:01.434Z,1.90
2019-03-13T23:27:29.837Z,1.80
2019-03-13T23:29:58.132Z,1.93
2019-03-13T23:32:26.503Z,1.77
2019-03-13T23:34:55.218Z,1.90
2019-03-13T23:37:23.533Z,1.90
2019-03-13T23:39:51.837Z,2.10
2019-03-13T23:42:20.883Z,1.63
2019-03-13T23:44:50.011Z,2.17
2019-03-13T23:47:18.273Z,1.60
2019-03-13T23:49:46.492Z,2.10
2019-03-13T23:52:14.753Z,2.40
2019-03-13T23:54:42.985Z,1.80
2019-03-13T23:57:11.313Z,1.77
2019-03-13T23:59:39.684Z,2.00
